Time;durP1;ratioP1;P1;durP2;ratioP2;P2;SDS_P1;SDS_P2;PMS_P1;PMS_P2;Temp;Humidity;BMP_temperature;BMP_pressure;BME280_temperature;BME280_humidity;BME280_pressure;Samples;Min_cycle;Max_cycle;Signal;HPM_P1;HPM_P2
2021/05/11 00:01:05;;;;;;;14.32;6.53;;;16.60;99.90;;;16.96;64.78;100755.31;4844581;29;20473;-66
2021/05/11 00:03:34;;;;;;;15.82;6.70;;;16.60;99.90;;;17.03;64.74;100751.50;4844765;29;20082;-66
2021/05/11 00:06:01;;;;;;;11.70;5.78;;;16.60;99.90;;;17.06;64.46;100754.09;4844604;29;20081;-67
2021/05/11 00:08:28;;;;;;;11.57;5.60;;;16.70;99.90;;;17.07;64.25;100761.16;4844514;29;20106;-67
2021/05/11 00:10:56;;;;;;;12.68;5.88;;;16.70;99.90;;;17.07;64.04;100755.81;4827969;29;20053;-66
2021/05/11 00:13:23;;;;;;;13.38;6.28;;;16.70;99.90;;;17.14;63.58;100756.50;4844371;29;20049;-66
2021/05/11 00:15:51;;;;;;;12.52;5.72;;;16.70;99.90;;;17.10;63.41;100753.06;4844416;29;20068;-66
2021/05/11 00:18:19;;;;;;;12.77;5.55;;;16.80;99.90;;;17.11;63.75;100754.81;4844447;29;20053;-66
2021/05/11 00:20:47;;;;;;;9.93;5.72;;;16.80;99.90;;;17.10;63.98;100766.44;4844401;29;20094;-67
2021/05/11 00:23:14;;;;;;;12.63;6.10;;;16.70;99.90;;;17.13;64.15;100758.31;4844217;29;20050;-66
2021/05/11 00:25:41;;;;;;;15.55;6.95;;;16.80;99.90;;;16.98;63.85;100748.13;4844121;29;20075;-66
2021/05/11 00:28:09;;;;;;;14.95;6.00;;;16.70;99.90;;;17.01;64.15;100756.03;4844282;29;20057;-66
2021/05/11 00:30:36;;;;;;;15.85;6.50;;;16.70;99.90;;;16.98;64.21;100744.56;4844281;29;20127;-66
2021/05/11 00:33:04;;;;;;;14.85;6.13;;;16.70;99.90;;;16.95;64.31;100740.22;4844122;29;20049;-66
2021/05/11 00:35:31;;;;;;;10.95;6.00;;;16.70;99.90;;;16.96;63.61;100747.28;4844028;29;20640;-66
2021/05/11 00:38:00;;;;;;;13.05;5.80;;;16.70;99.90;;;16.63;64.02;100759.03;4844036;29;20073;-66
2021/05/11 00:40:27;;;;;;;14.73;5.50;;;16.40;99.90;;;16.18;65.51;100753.25;4843629;29;20042;-65
2021/05/11 00:42:54;;;;;;;12.52;6.10;;;16.10;99.90;;;15.73;67.33;100740.34;4843951;29;20125;-66
2021/05/11 00:45:22;;;;;;;12.23;5.90;;;15.60;99.90;;;15.87;67.28;100746.19;4827301;29;20102;-66
2021/05/11 00:47:50;;;;;;;14.45;6.93;;;15.60;99.90;;;15.88;66.63;100746.13;4842753;29;20085;-66
2021/05/11 00:50:19;;;;;;;12.77;5.88;;;15.60;99.90;;;15.87;66.92;100748.84;4843835;29;20046;-66
2021/05/11 00:52:47;;;;;;;15.88;5.75;;;15.50;99.90;;;15.75;66.97;100743.84;4843670;29;20054;-66
2021/05/11 00:55:16;;;;;;;14.40;5.43;;;15.50;99.90;;;15.72;66.93;100739.47;4843778;29;20083;-66
2021/05/11 00:57:44;;;;;;;9.98;5.68;;;15.50;99.90;;;15.68;67.47;100736.94;4843813;29;20465;-66
2021/05/11 01:00:13;;;;;;;15.20;5.97;;;15.40;99.90;;;15.62;67.54;100742.44;4827051;29;20544;-66
2021/05/11 01:02:40;;;;;;;16.33;6.45;;;15.30;99.90;;;15.63;67.22;100745.06;4843859;29;20050;-66
2021/05/11 01:05:10;;;;;;;12.32;6.05;;;15.30;99.90;;;15.82;67.00;100750.75;4843888;29;20054;-67
2021/05/11 01:07:37;;;;;;;15.07;6.97;;;15.40;99.90;;;15.92;66.37;100746.91;4843414;29;20054;-67
2021/05/11 01:10:06;;;;;;;12.10;6.05;;;15.60;99.90;;;16.02;66.30;100748.41;4843555;29;20045;-66
2021/05/11 01:12:34;;;;;;;11.52;5.97;;;15.70;99.90;;;16.12;66.25;100745.41;4843381;29;20050;-66
2021/05/11 01:15:01;;;;;;;11.75;6.25;;;15.80;99.90;;;16.23;65.99;100747.78;4843322;29;20173;-66
2021/05/11 01:17:32;;;;;;;8.93;5.78;;;15.90;99.90;;;16.30;65.72;100744.00;4843341;29;20053;-66
2021/05/11 01:20:01;;;;;;;11.73;5.82;;;16.00;99.90;;;16.31;64.98;100744.88;4826683;29;20106;-66
2021/05/11 01:22:46;;;;;;;11.43;5.65;;;16.00;99.90;;;16.38;64.79;100738.44;4843394;29;20080;-66
2021/05/11 01:25:19;;;;;;;13.23;6.15;;;16.10;99.90;;;16.42;64.32;100738.31;4843283;29;20110;-66
2021/05/11 01:27:54;;;;;;;13.50;6.15;;;16.20;99.90;;;16.41;64.51;100741.03;4843087;29;20508;-66
2021/05/11 01:30:59;;;;;;;11.50;6.03;;;16.10;99.90;;;16.45;64.60;100738.22;4842960;29;20050;-66
2021/05/11 01:50:14;;;;;;;14.23;5.63;;;16.10;99.90;;;16.40;65.12;100744.59;4824748;29;20058;-66
2021/05/11 01:52:56;;;;;;;14.52;6.90;;;16.10;99.90;;;16.44;65.26;100747.13;4824586;29;20421;-66
2021/05/11 01:58:33;;;;;;;13.77;6.93;;;16.10;99.90;;;16.49;64.95;100737.22;4778071;29;20103;-66
2021/05/11 02:18:13;;;;;;;14.02;6.43;;;16.00;99.90;;;16.30;64.75;100730.66;4824264;29;20061;-66
2021/05/11 02:23:29;;;;;;;15.90;6.30;;;15.90;99.90;;;16.32;64.57;100739.50;4824176;29;20133;-67
2021/05/11 02:25:56;;;;;;;15.20;6.80;;;15.90;99.90;;;16.36;64.58;100738.47;4822964;29;20053;-66
2021/05/11 02:28:26;;;;;;;11.73;6.13;;;16.00;99.90;;;16.24;64.41;100712.16;4824102;29;20129;-67
2021/05/11 02:30:54;;;;;;;14.15;6.10;;;16.00;99.90;;;16.38;65.01;100731.31;4823978;29;20050;-67
2021/05/11 02:33:22;;;;;;;9.90;6.00;;;16.00;99.90;;;16.32;65.81;100719.97;4824116;29;20061;-66
2021/05/11 02:35:50;;;;;;;12.10;6.32;;;15.90;99.90;;;16.26;65.88;100716.53;4823876;29;20516;-67
2021/05/11 02:38:17;;;;;;;14.07;6.43;;;15.90;99.90;;;16.28;65.59;100717.34;4823898;29;20073;-66
2021/05/11 02:40:44;;;;;;;13.95;6.22;;;15.90;99.90;;;16.31;65.21;100716.41;4824518;29;20152;-66
2021/05/11 02:43:15;;;;;;;11.52;6.50;;;15.90;99.90;;;16.27;65.10;100709.41;4825715;29;20114;-66
2021/05/11 02:45:43;;;;;;;;;;;15.90;99.90;;;16.24;65.07;100720.16;4842599;29;20053;-67
2021/05/11 02:48:11;;;;;;;11.18;5.93;;;15.90;99.90;;;16.17;65.26;100716.81;4841983;29;20341;-68
2021/05/11 02:50:38;;;;;;;11.40;6.10;;;15.80;99.90;;;16.16;65.08;100703.53;4841950;29;20057;-67
2021/05/11 02:53:06;;;;;;;12.65;6.22;;;15.80;99.90;;;16.22;64.83;100704.19;4842022;29;20457;-67
2021/05/11 02:55:34;;;;;;;14.40;6.40;;;15.80;99.90;;;16.24;64.57;100707.69;4841889;29;20046;-67
2021/05/11 02:58:02;;;;;;;14.63;6.80;;;15.80;99.90;;;16.27;64.47;100706.75;4841798;29;20274;-67
2021/05/11 03:00:29;;;;;;;13.73;6.38;;;15.90;99.90;;;16.35;64.09;100710.06;4841859;29;20492;-67
2021/05/11 03:02:58;;;;;;;10.70;5.90;;;16.00;99.90;;;16.46;63.82;100707.91;4841836;29;20034;-67
2021/05/11 03:05:26;;;;;;;9.52;5.93;;;16.10;99.90;;;16.37;65.23;100713.56;4825368;29;20085;-67
2021/05/11 03:07:53;;;;;;;6.72;5.97;;;16.10;99.90;;;15.96;66.09;100712.09;4841896;29;20468;-67
2021/05/11 03:10:20;;;;;;;12.98;6.47;;;15.70;99.90;;;15.66;66.49;100685.44;4841845;29;20064;-67
2021/05/11 03:12:49;;;;;;;9.85;6.20;;;15.50;99.90;;;15.66;67.33;100709.44;4845390;29;20042;-66
2021/05/11 03:15:16;;;;;;;13.82;6.53;;;15.40;99.90;;;15.60;67.63;100706.94;4828989;29;20057;-67
2021/05/11 03:17:44;;;;;;;13.40;6.53;;;15.30;99.90;;;15.56;67.84;100708.81;4845581;29;20138;-67
2021/05/11 03:20:14;;;;;;;11.10;6.80;;;15.20;99.90;;;15.37;68.12;100681.72;4845411;29;20057;-66
2021/05/11 03:22:42;;;;;;;10.45;6.10;;;15.10;99.90;;;15.47;68.37;100714.38;4845366;29;20408;-66
2021/05/11 03:25:10;;;;;;;9.82;5.95;;;15.10;99.90;;;15.36;68.92;100711.09;4828525;29;20050;-67
2021/05/11 03:27:38;;;;;;;10.82;6.65;;;15.00;99.90;;;15.40;69.59;100715.44;4845242;29;20082;-67
2021/05/11 03:30:07;;;;;;;7.75;5.80;;;15.00;99.90;;;15.38;70.67;100714.59;4828720;29;20078;-67
2021/05/11 03:32:34;;;;;;;9.15;6.07;;;15.00;99.90;;;15.39;70.53;100719.00;4845099;29;20496;-67
2021/05/11 03:35:02;;;;;;;8.38;5.40;;;15.00;99.90;;;15.30;71.03;100708.59;4844979;29;20058;-67
2021/05/11 03:37:30;;;;;;;9.15;5.60;;;15.00;99.90;;;15.26;71.39;100717.56;4845033;29;20048;-67
2021/05/11 03:39:58;;;;;;;8.40;4.70;;;14.90;99.90;;;15.15;72.07;100715.22;4844930;29;20094;-67
2021/05/11 03:42:29;;;;;;;5.93;4.80;;;14.80;99.90;;;15.05;72.86;100729.66;4844939;29;20073;-66
2021/05/11 03:44:59;;;;;;;9.88;6.38;;;14.60;99.90;;;14.72;72.57;100730.47;4845169;29;20070;-66
2021/05/11 03:47:29;;;;;;;10.20;5.88;;;14.40;99.90;;;14.52;73.43;100718.56;4844945;29;20046;-66
2021/05/11 03:49:57;;;;;;;7.35;6.05;;;14.10;99.90;;;14.57;74.36;100711.31;4844861;29;20056;-67
2021/05/11 03:52:25;;;;;;;5.88;5.28;;;14.00;99.90;;;14.57;74.68;100719.31;4844736;29;20057;-66
2021/05/11 03:54:53;;;;;;;5.78;5.28;;;14.10;99.90;;;14.35;76.09;100718.91;4844874;29;20133;-66
2021/05/11 03:57:22;;;;;;;11.80;7.40;;;13.90;99.90;;;14.21;75.97;100724.50;4844678;29;20110;-66
2021/05/11 03:59:50;;;;;;;13.82;8.00;;;13.80;99.90;;;14.02;75.15;100717.81;4844775;29;20053;-66
2021/05/11 04:02:17;;;;;;;17.20;8.40;;;13.70;99.90;;;14.16;75.23;100722.84;4844575;29;20050;-66
2021/05/11 04:04:45;;;;;;;9.95;6.28;;;13.70;99.90;;;14.22;75.03;100712.09;4844612;29;20054;-66
2021/05/11 04:07:15;;;;;;;6.90;5.63;;;13.80;99.90;;;14.26;74.76;100724.41;4844574;29;20050;-66
2021/05/11 04:09:45;;;;;;;13.38;8.15;;;13.80;99.90;;;14.22;74.68;100728.03;4844506;29;20082;-66
2021/05/11 04:12:45;;;;;;;;;;;13.80;99.90;;;14.34;74.20;100725.16;4828330;29;20053;-66
2021/05/11 04:17:59;;;;;;;9.40;6.50;;;14.10;99.90;;;14.40;73.71;100727.69;4844493;29;20126;-66
2021/05/11 04:20:27;;;;;;;7.82;5.68;;;14.10;99.90;;;14.42;73.45;100720.50;4844220;29;20077;-66
2021/05/11 04:22:55;;;;;;;11.93;6.60;;;14.10;99.90;;;14.39;73.61;100716.16;4827358;29;20516;-66
2021/05/11 04:25:23;;;;;;;14.00;7.72;;;14.10;99.90;;;14.49;73.22;100738.13;4844223;29;20110;-65
2021/05/11 04:27:52;;;;;;;14.80;7.40;;;14.10;99.90;;;14.58;72.77;100721.94;4844361;29;20526;-67
2021/05/11 04:30:21;;;;;;;17.55;8.35;;;14.20;99.90;;;14.69;72.03;100721.69;4844186;29;20042;-66
2021/05/11 04:32:49;;;;;;;13.98;8.32;;;14.30;99.90;;;14.69;71.54;100697.72;4844017;29;20056;-66
2021/05/11 04:35:17;;;;;;;17.80;8.23;;;14.50;99.90;;;14.61;71.42;100668.63;4843962;29;20046;-65
2021/05/11 04:37:45;;;;;;;16.15;7.82;;;14.50;99.90;;;14.86;71.16;100714.16;4843836;29;20457;-66
2021/05/11 04:40:15;;;;;;;15.52;8.10;;;14.50;99.90;;;14.82;71.11;100718.69;4843657;29;20054;-66
2021/05/11 04:42:44;;;;;;;11.18;7.50;;;14.50;99.90;;;14.86;70.76;100715.06;4843833;29;20579;-66
2021/05/11 04:45:19;;;;;;;11.30;7.97;;;14.50;99.90;;;14.88;70.80;100723.88;4844003;29;20083;-66
2021/05/11 04:47:48;;;;;;;14.10;8.63;;;14.50;99.90;;;14.89;70.87;100730.94;4827440;29;20060;-66
2021/05/11 04:50:18;;;;;;;15.13;8.23;;;14.50;99.90;;;14.88;70.92;100726.53;4843745;29;20046;-65
2021/05/11 04:52:48;;;;;;;15.88;7.93;;;14.50;99.90;;;14.95;70.67;100737.91;4843675;29;20052;-66
2021/05/11 04:55:18;;;;;;;17.55;8.52;;;14.60;99.90;;;14.97;70.76;100736.97;4827182;29;20053;-66
2021/05/11 04:57:46;;;;;;;15.85;8.25;;;14.60;99.90;;;14.90;70.52;100724.72;4827261;29;20083;-66
2021/05/11 05:00:17;;;;;;;17.08;8.52;;;14.60;99.90;;;15.04;70.68;100743.03;4843696;29;20070;-66
2021/05/11 05:02:49;;;;;;;12.82;8.60;;;14.70;99.90;;;15.18;70.56;100741.75;4827201;29;20189;-66
2021/05/11 05:05:17;;;;;;;15.60;8.40;;;14.70;99.90;;;15.17;70.33;100741.81;4843269;29;20065;-67
2021/05/11 05:07:45;;;;;;;16.92;8.55;;;14.80;99.90;;;15.04;70.56;100714.59;4843601;29;20046;-67
2021/05/11 05:10:14;;;;;;;14.55;8.70;;;14.80;99.90;;;15.30;70.37;100741.47;4843797;29;20075;-66
2021/05/11 05:12:45;;;;;;;13.75;8.50;;;14.80;99.90;;;14.66;70.02;100634.78;4826907;29;20524;-67
2021/05/11 05:15:16;;;;;;;12.27;8.10;;;14.90;99.90;;;15.35;70.28;100751.97;4843385;29;20046;-66
2021/05/11 05:17:44;;;;;;;16.25;8.55;;;15.00;99.90;;;15.42;70.08;100752.75;4843306;29;20050;-66
2021/05/11 05:20:13;;;;;;;15.35;8.48;;;15.00;99.90;;;15.48;70.01;100752.59;4843507;29;20050;-66
2021/05/11 05:22:42;;;;;;;15.65;9.10;;;15.10;99.90;;;15.51;69.86;100747.16;4843180;29;20064;-65
2021/05/11 05:25:13;;;;;;;17.20;8.73;;;15.20;99.90;;;15.57;69.84;100752.31;4826791;29;20496;-65
2021/05/11 05:27:47;;;;;;;17.70;7.88;;;15.20;99.90;;;15.59;70.13;100751.38;4843084;29;20535;-65
2021/05/11 05:30:18;;;;;;;17.08;9.27;;;15.30;99.90;;;15.75;69.81;100738.50;4843025;29;20389;-65
2021/05/11 05:32:46;;;;;;;;;;;15.40;99.90;;;15.85;69.86;100746.19;4843500;29;20074;-66
2021/05/11 05:35:17;;;;;;;17.17;9.20;;;15.50;99.90;;;15.95;69.68;100741.50;4842456;29;19929;-66
2021/05/11 05:37:45;;;;;;;20.48;9.73;;;15.60;99.90;;;16.08;69.13;100746.44;4842995;29;20058;-66
2021/05/11 05:40:18;;;;;;;21.02;9.20;;;15.80;99.90;;;16.14;68.67;100748.06;4842902;29;20069;-68
2021/05/11 05:42:46;;;;;;;15.20;8.70;;;15.80;99.90;;;16.27;68.20;100745.00;4826464;29;20066;-67
2021/05/11 05:45:16;;;;;;;18.30;8.82;;;15.90;99.90;;;15.89;67.85;100683.84;4842796;29;20549;-67
2021/05/11 05:47:51;;;;;;;17.23;8.82;;;16.00;99.90;;;16.45;67.36;100746.25;4826495;29;20054;-68
2021/05/11 05:50:21;;;;;;;16.60;9.27;;;16.10;99.90;;;16.58;67.34;100744.09;4842776;29;20415;-68
2021/05/11 05:53:00;;;;;;;15.85;8.88;;;16.20;99.90;;;16.64;66.84;100743.91;4842793;29;20057;-68
2021/05/11 05:55:28;;;;;;;18.20;9.70;;;16.30;99.90;;;16.74;66.34;100740.88;4842582;29;20064;-67
2021/05/11 05:57:56;;;;;;;18.77;9.27;;;16.40;99.90;;;16.79;65.73;100727.38;4842787;29;20053;-67
2021/05/11 06:00:26;;;;;;;17.15;9.13;;;16.50;99.90;;;16.92;65.38;100734.94;4842521;29;20483;-68
2021/05/11 06:02:55;;;;;;;15.77;8.82;;;16.60;99.90;;;17.06;65.75;100743.41;4842575;29;20061;-67
2021/05/11 06:05:23;;;;;;;17.75;9.02;;;16.70;99.90;;;17.11;65.24;100735.25;4842391;29;20500;-68
2021/05/11 06:07:52;;;;;;;19.98;9.30;;;16.80;99.90;;;17.25;65.00;100730.28;4825650;29;20061;-68
2021/05/11 06:10:20;;;;;;;15.98;8.45;;;16.90;99.90;;;17.36;65.03;100736.16;4826262;29;20102;-67
2021/05/11 06:12:51;;;;;;;16.13;7.55;;;17.00;99.90;;;16.88;64.49;100614.84;4842428;29;20390;-67
2021/05/11 06:18:06;;;;;;;17.50;8.38;;;17.40;99.90;;;17.80;63.47;100731.94;4842348;29;19983;-67
2021/05/11 06:20:34;;;;;;;19.20;7.85;;;17.50;99.90;;;17.89;62.86;100716.44;4842158;29;20579;-68
2021/05/11 06:23:03;;;;;;;17.08;7.20;;;17.60;99.90;;;17.98;62.28;100716.06;4825929;29;20475;-63
2021/05/11 06:25:31;;;;;;;13.43;6.40;;;17.70;99.90;;;18.19;62.79;100708.19;4842150;29;20591;-62
2021/05/11 06:28:01;;;;;;;17.83;7.50;;;17.90;99.90;;;18.35;61.67;100710.19;4842129;29;20527;-61
2021/05/11 06:30:30;;;;;;;15.02;6.95;;;18.10;99.90;;;18.52;61.41;100717.63;4842476;29;20458;-62
2021/05/11 06:32:58;;;;;;;13.43;6.50;;;18.30;99.90;;;18.56;60.98;100719.25;4842012;29;20133;-61
2021/05/11 06:35:29;;;;;;;17.45;6.60;;;18.30;99.90;;;18.62;60.84;100716.34;4841935;29;20060;-61
2021/05/11 06:37:57;;;;;;;12.70;6.53;;;18.30;99.90;;;18.76;60.86;100720.19;4842226;29;20061;-62
2021/05/11 06:40:26;;;;;;;15.68;7.85;;;18.50;99.90;;;18.88;61.06;100719.72;4841944;29;20045;-62
2021/05/11 06:42:55;;;;;;;12.30;7.10;;;18.60;99.90;;;18.86;60.59;100700.13;4842157;29;20062;-62
2021/05/11 06:48:12;;;;;;;16.30;7.55;;;18.80;99.90;;;19.23;60.31;100728.09;4825720;29;20531;-61
2021/05/11 06:53:28;;;;;;;16.02;7.60;;;19.00;99.90;;;19.40;59.78;100725.59;4824948;29;20550;-60
2021/05/11 06:55:57;;;;;;;14.65;7.78;;;19.20;99.90;;;19.47;59.47;100727.94;4825393;29;20106;-62
2021/05/11 06:58:25;;;;;;;17.75;8.40;;;19.30;99.90;;;19.39;59.73;100702.41;4841849;29;20066;-61
2021/05/11 07:00:53;;;;;;;16.00;8.43;;;19.30;99.90;;;19.54;59.64;100721.41;4841788;29;20038;-62
2021/05/11 07:03:21;;;;;;;14.63;7.63;;;19.30;99.90;;;19.75;59.44;100733.00;4841618;29;20038;-62
2021/05/11 07:05:51;;;;;;;13.68;7.85;;;19.50;99.90;;;19.85;59.23;100731.66;4841702;29;20118;-62
2021/05/11 07:08:25;;;;;;;;;;;19.60;99.90;;;19.76;59.15;100730.22;4825673;29;20061;-62
2021/05/11 07:10:56;;;;;;;15.20;8.77;;;19.60;99.90;;;19.77;59.61;100720.38;4841780;29;19928;-62
2021/05/11 07:13:25;;;;;;;15.10;8.23;;;19.70;99.90;;;19.96;59.79;100726.66;4841707;29;20061;-62
2021/05/11 07:15:54;;;;;;;14.60;8.13;;;19.70;99.90;;;20.12;59.56;100725.03;4841437;29;20061;-62
2021/05/11 07:18:23;;;;;;;18.65;8.82;;;19.90;99.90;;;20.09;59.48;100727.84;4825133;29;20054;-61
2021/05/11 07:20:59;;;;;;;15.97;8.07;;;19.90;99.90;;;20.35;59.52;100729.38;4841940;29;20393;-62
2021/05/11 07:23:29;;;;;;;14.23;8.45;;;20.10;99.90;;;20.51;58.88;100744.72;4841645;29;20314;-62
2021/05/11 07:26:05;;;;;;;12.65;8.38;;;20.30;99.90;;;20.62;58.74;100730.75;4841268;29;20474;-61
2021/05/11 07:31:20;;;;;;;15.23;9.07;;;20.40;99.90;;;20.47;57.89;100728.78;4839352;29;20065;-62
2021/05/11 07:33:49;;;;;;;17.20;9.30;;;20.30;99.90;;;20.04;57.86;100734.38;4841548;29;20446;-62
2021/05/11 07:36:18;;;;;;;13.93;8.85;;;20.00;99.90;;;20.21;58.75;100731.84;4841621;29;20137;-62
2021/05/11 07:38:47;;;;;;;16.70;8.95;;;20.00;99.90;;;20.40;59.00;100738.94;4825370;29;20049;-63
2021/05/11 07:41:17;;;;;;;15.82;9.15;;;20.10;99.90;;;20.50;58.05;100742.06;4841268;29;20401;-62
2021/05/11 07:43:49;;;;;;;14.98;9.20;;;20.30;99.90;;;20.45;57.67;100738.75;4841416;29;20058;-62
2021/05/11 07:46:39;;;;;;;17.42;9.65;;;20.30;99.90;;;20.57;58.07;100738.19;4825073;29;20131;-63
2021/05/11 07:52:26;;;;;;;14.60;8.52;;;20.40;99.90;;;20.68;57.66;100738.53;4773583;29;20067;-62
2021/05/11 08:14:34;;;;;;;13.23;9.02;;;20.90;99.90;;;21.16;57.18;100729.91;4828057;29;20061;-62
2021/05/11 08:17:03;;;;;;;17.05;9.57;;;20.90;99.90;;;21.27;57.63;100722.19;4844254;29;20042;-62
2021/05/11 08:19:50;;;;;;;13.88;7.80;;;21.00;99.90;;;21.33;57.06;100711.97;4844510;29;20057;-62
2021/05/11 08:22:39;;;;;;;12.73;7.57;;;21.20;99.90;;;21.67;56.88;100721.88;4844212;29;20045;-62
2021/05/11 08:27:57;;;;;;;15.48;8.13;;;21.50;99.90;;;21.87;55.79;100705.56;4844123;29;20060;-62
2021/05/11 08:30:26;;;;;;;17.17;9.00;;;21.70;99.90;;;22.13;55.23;100737.34;4827546;29;20484;-62
2021/05/11 08:32:54;;;;;;;16.27;8.82;;;21.90;99.90;;;22.30;54.56;100731.91;4844022;29;20500;-62
2021/05/11 08:35:22;;;;;;;12.98;8.20;;;22.10;99.90;;;22.42;54.56;100731.25;4827501;29;20053;-63
2021/05/11 08:37:50;;;;;;;13.10;8.60;;;22.20;99.90;;;22.45;53.53;100733.75;4843950;29;20046;-62
2021/05/11 08:40:20;;;;;;;17.65;8.68;;;22.30;99.90;;;22.45;53.29;100744.53;4844146;29;20085;-62
2021/05/11 08:42:48;;;;;;;16.33;9.23;;;22.30;99.90;;;22.33;53.74;100737.16;4844027;29;20076;-62
2021/05/11 08:45:17;;;;;;;16.45;9.02;;;22.20;99.90;;;22.32;53.92;100739.91;4843988;29;20050;-62
2021/05/11 08:47:52;;;;;;;15.98;9.10;;;22.10;99.90;;;22.29;53.65;100742.78;4843763;29;20049;-62
2021/05/11 08:50:26;;;;;;;16.92;9.13;;;22.10;99.90;;;22.10;54.22;100740.22;4844019;29;20442;-62
2021/05/11 08:53:09;;;;;;;16.45;9.38;;;22.00;99.90;;;22.03;54.33;100746.00;4843917;29;20061;-61
2021/05/11 09:04:38;;;;;;;15.20;9.27;;;22.20;99.90;;;22.47;54.04;100751.69;4827134;29;20094;-62
2021/05/11 09:07:42;;;;;;;18.98;10.15;;;22.30;99.90;;;22.61;54.17;100738.34;4843449;29;20058;-62
2021/05/11 09:24:42;;;;;;;18.25;10.27;;;22.00;99.90;;;22.43;53.80;100751.00;4843148;29;20069;-64
2021/05/11 09:27:19;;;;;;;17.98;9.23;;;22.10;99.90;;;22.49;53.43;100749.78;4826789;29;20057;-66
2021/05/11 09:30:05;;;;;;;13.25;8.88;;;22.20;99.90;;;22.51;54.01;100764.94;4826552;29;20070;-66
2021/05/11 09:32:46;;;;;;;20.30;9.85;;;22.30;99.90;;;22.60;53.73;100742.00;4826567;29;20074;-66
2021/05/11 09:54:39;;;;;;;15.68;9.38;;;22.00;99.90;;;22.15;52.76;100740.84;4844112;29;20374;-68
2021/05/11 09:57:25;;;;;;;52.65;12.90;;;21.90;99.90;;;22.30;53.15;100720.25;4842639;29;20081;-70
2021/05/11 10:48:42;;;;;;;16.75;9.10;;;20.70;99.90;;;21.04;56.92;100709.00;4825221;29;20050;-67
2021/05/11 10:51:26;;;;;;;17.30;9.60;;;20.80;99.90;;;21.04;56.27;100706.31;4841952;29;20374;-76
2021/05/11 10:54:04;;;;;;;18.73;9.57;;;20.80;99.90;;;21.00;55.71;100697.47;4841963;29;20066;-82
2021/05/11 10:56:53;;;;;;;16.90;8.48;;;20.80;99.90;;;21.01;55.28;100710.03;4842026;29;20050;-67
2021/05/11 11:05:41;;;;;;;13.60;7.55;;;20.50;99.90;;;20.43;55.79;100714.66;4825367;29;20053;-76
2021/05/11 11:08:29;;;;;;;19.10;8.23;;;20.20;99.90;;;19.92;57.53;100718.84;4825378;29;20519;-78
2021/05/11 11:11:13;;;;;;;12.05;7.93;;;19.80;99.90;;;19.52;58.40;100706.28;4825523;29;20065;-73
2021/05/11 11:13:44;;;;;;;21.60;8.52;;;19.40;99.90;;;18.89;59.34;100700.00;4841673;29;20513;-68
2021/05/11 11:16:14;;;;;;;22.05;8.07;;;18.80;99.90;;;19.00;59.05;100704.94;4825294;29;20061;-65
2021/05/11 11:18:44;;;;;;;11.85;5.15;;;18.60;99.90;;;18.63;57.31;100702.00;4841579;29;20053;-62
2021/05/11 11:21:34;;;;;;;11.90;5.32;;;18.40;99.90;;;18.76;57.89;100690.72;4841939;29;20046;-68
2021/05/11 11:24:02;;;;;;;9.40;5.72;;;18.50;99.90;;;18.63;57.58;100668.03;4841655;29;20057;-66
2021/05/11 11:26:33;;;;;;;8.45;4.75;;;18.50;99.90;;;18.36;55.11;100677.16;4841644;29;20052;-62
2021/05/11 11:29:03;;;;;;;6.82;4.43;;;18.30;99.90;;;18.48;55.04;100674.03;4841632;29;20114;-66
2021/05/11 11:31:33;;;;;;;8.05;4.50;;;18.20;99.90;;;18.74;54.43;100663.09;4842132;29;20061;-68
2021/05/11 11:34:15;;;;;;;;;;;18.50;99.90;;;18.90;54.21;100661.56;4845797;29;20046;-65
2021/05/11 11:36:48;;;;;;;7.43;4.07;;;18.60;99.90;;;19.15;53.37;100664.06;4828539;29;19928;-62
2021/05/11 11:39:19;;;;;;;7.30;3.58;;;18.90;99.90;;;19.35;52.61;100680.22;4845211;29;20396;-70
2021/05/11 11:41:48;;;;;;;;;;;19.10;99.90;;;19.56;52.16;100689.13;4828723;29;20500;-74
2021/05/11 11:44:19;;;;;;;9.00;4.03;;;19.30;99.90;;;19.79;52.92;100689.84;4845078;29;20011;-69
2021/05/11 11:46:58;;;;;;;9.75;4.45;;;19.50;99.90;;;19.97;54.98;100687.25;4844895;29;20049;-69
2021/05/11 11:49:28;;;;;;;11.70;5.05;;;19.70;99.90;;;20.19;56.16;100696.97;4844884;29;20048;-74
2021/05/11 11:52:00;;;;;;;9.40;4.85;;;19.90;99.90;;;20.36;56.62;100699.72;4828058;29;20058;-67
2021/05/11 11:54:35;;;;;;;13.40;4.85;;;20.10;99.90;;;20.57;56.97;100696.06;4845008;29;20050;-81
2021/05/11 12:00:06;;;;;;;8.95;4.80;;;20.50;99.90;;;21.04;53.15;100688.34;4844653;29;20122;-79
2021/05/11 12:02:52;;;;;;;10.88;4.05;;;20.80;99.90;;;21.26;51.41;100694.41;4844759;29;20079;-79
2021/05/11 12:05:21;;;;;;;;;;;21.00;99.90;;;21.10;51.68;100623.47;4845119;29;20057;-68
2021/05/11 12:08:08;;;;;;;9.63;4.47;;;21.30;99.90;;;21.17;50.22;100602.53;4828012;29;20010;-70
2021/05/11 12:10:38;;;;;;;14.13;4.25;;;21.40;99.90;;;21.92;49.32;100699.91;4844439;29;20046;-67
2021/05/11 12:13:10;;;;;;;7.03;3.83;;;21.70;99.90;;;22.01;47.43;100694.91;4844480;29;20053;-68
2021/05/11 12:15:38;;;;;;;8.93;3.30;;;21.80;99.90;;;22.12;45.98;100697.03;4844425;29;20427;-75
2021/05/11 12:18:13;;;;;;;6.03;2.85;;;22.00;99.90;;;22.40;46.58;100714.28;4844327;29;20505;-66
2021/05/11 12:21:01;;;;;;;3.15;2.85;;;22.10;99.90;;;22.46;44.32;100718.47;4844323;29;20064;-74
2021/05/11 12:23:29;;;;;;;5.90;3.17;;;22.30;99.90;;;22.47;44.74;100713.94;4844363;29;20058;-71
2021/05/11 12:25:59;;;;;;;8.18;3.83;;;22.30;99.90;;;22.57;45.01;100720.59;4844357;29;20077;-69
2021/05/11 12:28:36;;;;;;;6.20;3.50;;;22.30;99.90;;;22.58;45.25;100712.44;4827679;29;20489;-73
2021/05/11 12:31:08;;;;;;;5.88;3.10;;;22.40;99.90;;;22.74;44.44;100737.59;4843975;29;20060;-68
2021/05/11 12:33:42;;;;;;;6.07;3.65;;;22.50;99.90;;;22.79;43.59;100723.81;4843855;29;20066;-63
2021/05/11 12:36:19;;;;;;;7.10;3.13;;;22.50;99.90;;;22.80;43.81;100737.22;4844187;29;20077;-65
2021/05/11 12:38:48;;;;;;;6.13;3.15;;;22.50;99.90;;;22.93;44.43;100723.91;4843834;29;20370;-68
2021/05/11 12:41:31;;;;;;;6.90;3.20;;;22.70;99.90;;;23.04;45.07;100726.84;4843965;29;20088;-72
2021/05/11 12:44:01;;;;;;;4.60;3.17;;;22.70;99.90;;;23.07;43.34;100718.59;4843651;29;20473;-73
2021/05/11 12:46:31;;;;;;;8.48;3.60;;;22.80;99.90;;;23.18;44.37;100716.13;4843991;29;20034;-78
2021/05/11 12:49:02;;;;;;;7.28;3.75;;;22.90;99.90;;;21.77;44.01;100599.25;4843956;29;20060;-71
2021/05/11 12:51:33;;;;;;;;;;;22.50;99.90;;;22.31;44.35;100713.94;4844334;29;20050;-73
2021/05/11 12:54:04;;;;;;;5.10;3.53;;;22.20;99.90;;;21.72;46.34;100697.41;4843931;29;19924;-72
2021/05/11 12:56:44;;;;;;;9.30;3.38;;;21.70;99.90;;;21.78;46.52;100714.09;4843727;29;20050;-77
2021/05/11 12:59:41;;;;;;;6.57;4.50;;;21.50;99.90;;;22.03;45.83;100708.28;4843662;29;20081;-70
2021/05/11 13:02:25;;;;;;;7.63;3.90;;;21.70;99.90;;;22.28;45.92;100709.56;4843636;29;20126;-72
2021/05/11 13:05:08;;;;;;;12.20;5.32;;;21.90;99.90;;;22.07;44.39;100693.69;4827139;29;20086;-68
2021/05/11 13:16:16;;;;;;;14.98;8.10;;;21.40;99.90;;;21.85;46.72;100714.69;4827074;29;20106;-67
2021/05/11 13:21:38;;;;;;;14.85;8.38;;;21.30;99.90;;;21.59;47.70;100713.31;4843016;29;20061;-67
2021/05/11 13:26:58;;;;;;;15.43;8.55;;;21.30;99.90;;;21.71;47.01;100730.66;4843052;29;20058;-66
2021/05/11 13:29:37;;;;;;;15.18;7.20;;;21.30;99.90;;;21.74;46.83;100736.75;4843148;29;20042;-65
2021/05/11 13:32:09;;;;;;;16.38;7.95;;;21.30;99.90;;;21.79;47.10;100733.81;4843075;29;20572;-63
2021/05/11 13:34:38;;;;;;;10.70;6.93;;;21.40;99.90;;;21.89;46.29;100738.66;4842933;29;20045;-68
2021/05/11 13:37:06;;;;;;;16.67;7.22;;;21.50;99.90;;;21.92;46.63;100737.63;4842875;29;20113;-62
2021/05/11 13:39:34;;;;;;;14.10;7.20;;;21.60;99.90;;;21.93;46.58;100734.84;4842884;29;20397;-62
2021/05/11 13:42:02;;;;;;;10.75;6.60;;;21.60;99.90;;;22.01;47.34;100739.84;4842437;29;20497;-71